createdAt,value
2023-01-01T00:00:56.678Z,15.17
2023-01-01T00:01:57.564Z,15.13
2023-01-01T00:02:56.708Z,15.12
2023-01-01T00:03:56.825Z,15.11
2023-01-01T00:04:56.651Z,15.11
2023-01-01T00:05:56.636Z,15.11
2023-01-01T00:06:56.620Z,15.11
2023-01-01T00:08:04.219Z,15.08
2023-01-01T00:08:57.590Z,15.09
2023-01-01T00:09:56.545Z,15.11
2023-01-01T00:10:56.964Z,15.13
2023-01-01T00:11:56.565Z,15.19
2023-01-01T00:12:56.535Z,15.17
2023-01-01T00:13:56.721Z,15.15
2023-01-01T00:14:56.477Z,15.15
2023-01-01T00:15:56.583Z,15.13
2023-01-01T00:16:56.599Z,15.15
2023-01-01T00:17:56.570Z,15.17
2023-01-01T00:18:56.524Z,15.17
2023-01-01T00:19:56.507Z,15.15
2023-01-01T00:20:56.644Z,15.12
2023-01-01T00:21:56.511Z,15.15
2023-01-01T00:22:57.454Z,15.19
2023-01-01T00:23:56.571Z,15.19
2023-01-01T00:24:56.444Z,15.21
2023-01-01T00:25:56.505Z,15.28
2023-01-01T00:26:56.513Z,15.35
2023-01-01T00:27:56.338Z,15.31
2023-01-01T00:28:56.296Z,15.31
2023-01-01T00:29:56.277Z,15.35
2023-01-01T00:30:56.342Z,15.36
2023-01-01T00:31:56.308Z,15.39
2023-01-01T00:32:58.380Z,15.36
2023-01-01T00:33:56.676Z,15.38
2023-01-01T00:34:59.596Z,15.35
2023-01-01T00:36:01.063Z,15.35
2023-01-01T00:36:56.882Z,15.33
2023-01-01T00:38:03.815Z,15.33
2023-01-01T00:39:05.281Z,15.30
2023-01-01T00:40:08.642Z,15.27
2023-01-01T00:40:58.230Z,15.26
2023-01-01T00:41:59.645Z,15.26
2023-01-01T00:44:29.385Z,15.28
2023-01-01T00:45:47.206Z,15.28
2023-01-01T00:46:15.730Z,15.30
2023-01-01T00:47:22.684Z,15.35
2023-01-01T00:48:16.452Z,15.38
2023-01-01T00:49:14.685Z,15.36
2023-01-01T00:50:43.901Z,15.31
2023-01-01T00:51:38.191Z,15.30
2023-01-01T00:52:15.504Z,15.28
2023-01-01T00:53:12.993Z,15.27
2023-01-01T00:54:12.602Z,15.24
2023-01-01T00:55:13.345Z,15.27
2023-01-01T00:58:11.671Z,15.49
2023-01-01T00:59:05.862Z,15.46
2023-01-01T00:59:56.370Z,15.42
2023-01-01T01:01:00.894Z,15.41
2023-01-01T01:01:57.732Z,15.42
2023-01-01T01:03:03.022Z,15.43
2023-01-01T01:03:56.966Z,15.41
2023-01-01T01:05:01.072Z,15.43
2023-01-01T01:05:58.677Z,15.42
2023-01-01T01:06:57.164Z,15.38
2023-01-01T01:07:57.119Z,15.36
2023-01-01T01:08:55.840Z,15.36
2023-01-01T01:09:55.707Z,15.38
2023-01-01T01:10:58.071Z,15.35
2023-01-01T01:12:17.521Z,15.30
2023-01-01T01:12:56.653Z,15.31
2023-01-01T01:13:56.514Z,15.41
2023-01-01T01:14:55.845Z,15.51
2023-01-01T01:15:56.558Z,15.54
2023-01-01T01:16:56.635Z,15.54
2023-01-01T01:18:00.475Z,15.54
2023-01-01T01:20:04.896Z,15.56
2023-01-01T01:21:01.412Z,15.56
2023-01-01T01:22:01.260Z,15.56
2023-01-01T01:23:00.967Z,15.60
2023-01-01T01:24:01.917Z,15.60
2023-01-01T01:25:00.903Z,15.60
2023-01-01T01:26:02.677Z,15.63
2023-01-01T01:27:01.623Z,15.64
2023-01-01T01:28:01.327Z,15.63
2023-01-01T01:29:01.452Z,15.60
2023-01-01T01:30:01.368Z,15.57
2023-01-01T01:31:04.545Z,15.54
2023-01-01T01:32:01.144Z,15.51
2023-01-01T01:33:01.019Z,15.43
2023-01-01T01:34:00.410Z,15.38
2023-01-01T01:35:13.622Z,15.45
2023-01-01T01:36:00.281Z,15.51
2023-01-01T01:37:01.824Z,15.56
2023-01-01T01:38:01.607Z,15.57
2023-01-01T01:39:00.472Z,15.57
2023-01-01T01:40:00.905Z,15.56
2023-01-01T01:41:02.344Z,15.56
2023-01-01T01:42:00.923Z,15.52
2023-01-01T01:43:01.319Z,15.51
2023-01-01T01:44:01.435Z,15.48
2023-01-01T01:45:00.140Z,15.46
2023-01-01T01:46:02.897Z,15.43
2023-01-01T01:47:02.965Z,15.39
2023-01-01T01:48:01.313Z,15.35
2023-01-01T01:49:01.406Z,15.28
2023-01-01T01:50:28.937Z,15.23
2023-01-01T01:51:02.013Z,15.17
2023-01-01T01:52:01.296Z,15.08
2023-01-01T01:53:00.746Z,15.08
2023-01-01T01:54:01.388Z,15.20
2023-01-01T01:55:00.944Z,15.28
2023-01-01T01:56:01.309Z,15.33
2023-01-01T01:57:02.705Z,15.33
2023-01-01T01:58:01.671Z,15.31
2023-01-01T01:59:02.393Z,15.33
2023-01-01T02:00:03.728Z,15.41
2023-01-01T02:01:01.843Z,15.48
2023-01-01T02:03:15.440Z,15.51
2023-01-01T02:04:13.901Z,15.48
2023-01-01T02:05:17.739Z,15.51
2023-01-01T02:06:13.552Z,15.48
2023-01-01T02:07:13.878Z,15.49
2023-01-01T02:08:13.867Z,15.49
2023-01-01T02:09:12.668Z,15.48
2023-01-01T02:10:11.977Z,15.51
2023-01-01T02:11:15.110Z,15.51
2023-01-01T02:12:15.463Z,15.52
2023-01-01T02:13:13.170Z,15.54
2023-01-01T02:14:11.713Z,15.56
2023-01-01T02:15:16.850Z,15.54
2023-01-01T02:16:13.244Z,15.57
2023-01-01T02:17:13.884Z,15.67
2023-01-01T02:18:14.604Z,15.72
2023-01-01T02:19:12.097Z,15.68
2023-01-01T02:20:14.394Z,15.67
2023-01-01T02:21:14.146Z,15.63
2023-01-01T02:22:33.647Z,15.64
2023-01-01T02:23:14.179Z,15.64
2023-01-01T02:24:17.546Z,15.63
2023-01-01T02:25:15.471Z,15.60
2023-01-01T02:26:16.143Z,15.59
2023-01-01T02:27:13.496Z,15.56
2023-01-01T02:28:14.947Z,15.51
2023-01-01T02:29:15.486Z,15.48
2023-01-01T02:30:13.617Z,15.48
2023-01-01T02:31:12.407Z,15.46
2023-01-01T02:32:11.737Z,15.46
2023-01-01T02:33:13.186Z,15.48
2023-01-01T02:34:14.233Z,15.48
2023-01-01T02:35:13.446Z,15.52
2023-01-01T02:36:13.247Z,15.54
2023-01-01T02:37:14.639Z,15.57
2023-01-01T02:38:13.554Z,15.60
2023-01-01T02:39:15.152Z,15.63
2023-01-01T02:40:12.802Z,15.64
2023-01-01T02:41:12.717Z,15.66
2023-01-01T02:42:11.452Z,15.67
2023-01-01T02:43:16.961Z,15.66
2023-01-01T02:44:13.831Z,15.64
2023-01-01T02:45:12.661Z,15.63
2023-01-01T02:47:11.567Z,15.61
2023-01-01T02:48:11.708Z,15.60
2023-01-01T02:49:12.049Z,15.60
2023-01-01T02:50:12.939Z,15.56
2023-01-01T02:51:12.604Z,15.52
2023-01-01T02:52:14.536Z,15.46
2023-01-01T02:53:11.920Z,15.42
2023-01-01T02:54:11.307Z,15.45
2023-01-01T02:55:11.312Z,15.41
2023-01-01T02:56:12.311Z,15.42
2023-01-01T02:57:11.841Z,15.38
2023-01-01T02:58:12.121Z,15.31
2023-01-01T02:59:11.585Z,15.21
2023-01-01T03:00:13.422Z,15.08
2023-01-01T03:01:13.086Z,15.06
2023-01-01T03:02:37.670Z,15.09
2023-01-01T03:03:12.698Z,15.06
2023-01-01T03:04:11.524Z,15.08
2023-01-01T03:05:11.713Z,15.09
2023-01-01T03:06:12.492Z,15.09
2023-01-01T03:07:12.276Z,15.12
2023-01-01T03:08:13.167Z,15.17
2023-01-01T03:09:11.260Z,15.15
2023-01-01T03:10:12.097Z,15.11
2023-01-01T03:11:11.210Z,15.05
2023-01-01T03:12:13.223Z,15.02
2023-01-01T03:13:11.909Z,14.98
2023-01-01T03:14:13.659Z,14.88
2023-01-01T03:15:11.976Z,14.84
2023-01-01T03:16:11.574Z,14.84
2023-01-01T03:17:12.494Z,14.86
2023-01-01T03:18:11.364Z,14.90
2023-01-01T03:19:11.505Z,14.94
2023-01-01T03:20:11.163Z,14.98
2023-01-01T03:22:02.896Z,14.98
2023-01-01T03:23:04.227Z,14.95
2023-01-01T03:24:02.859Z,14.95
2023-01-01T03:25:02.931Z,14.93
2023-01-01T03:26:05.173Z,14.87
2023-01-01T03:27:05.712Z,14.83
2023-01-01T03:28:03.135Z,14.75
2023-01-01T03:29:04.638Z,14.69
2023-01-01T03:30:06.872Z,14.65
2023-01-01T03:31:05.078Z,14.61
2023-01-01T03:32:04.415Z,14.60
2023-01-01T03:33:07.278Z,14.52
2023-01-01T03:34:05.643Z,14.49
2023-01-01T03:35:05.071Z,14.46
2023-01-01T03:36:04.438Z,14.46
2023-01-01T03:37:02.564Z,14.49
2023-01-01T03:38:03.629Z,14.49
2023-01-01T03:39:02.705Z,14.44
2023-01-01T03:40:03.166Z,14.42
2023-01-01T03:41:03.064Z,14.43
2023-01-01T03:42:02.485Z,14.44
2023-01-01T03:43:02.764Z,14.49
2023-01-01T03:44:02.623Z,14.50
2023-01-01T03:45:02.054Z,14.53
2023-01-01T03:46:02.301Z,14.52
2023-01-01T03:47:03.040Z,14.57
2023-01-01T03:48:02.403Z,14.62
2023-01-01T03:49:04.547Z,14.65
2023-01-01T03:50:03.135Z,14.72
2023-01-01T03:51:01.752Z,14.74
2023-01-01T03:52:01.803Z,14.75
2023-01-01T03:53:01.822Z,14.80
2023-01-01T03:54:01.863Z,14.87
2023-01-01T03:55:02.968Z,14.87
2023-01-01T03:56:03.558Z,14.91
2023-01-01T03:57:02.897Z,14.93
2023-01-01T03:58:01.845Z,14.94
2023-01-01T03:59:01.991Z,14.93
2023-01-01T04:00:02.454Z,14.94
2023-01-01T04:01:04.452Z,14.98
2023-01-01T04:02:01.790Z,15.06
2023-01-01T04:03:03.374Z,15.11
2023-01-01T04:04:03.259Z,15.11
2023-01-01T04:05:02.755Z,15.13
2023-01-01T04:06:04.476Z,15.11
2023-01-01T04:07:14.147Z,15.11
2023-01-01T04:08:04.647Z,15.11
2023-01-01T04:09:03.115Z,15.11
2023-01-01T04:10:01.687Z,15.12
2023-01-01T04:11:02.237Z,15.12
2023-01-01T04:12:03.169Z,15.08
2023-01-01T04:13:02.336Z,15.08
2023-01-01T04:14:01.960Z,15.08
2023-01-01T04:15:02.074Z,15.08
2023-01-01T04:16:03.011Z,15.08
2023-01-01T04:17:02.232Z,15.08
2023-01-01T04:18:03.124Z,15.08
2023-01-01T04:19:03.219Z,15.09
2023-01-01T04:20:04.727Z,15.09
2023-01-01T04:21:23.062Z,15.09
2023-01-01T04:22:06.065Z,15.08
2023-01-01T04:23:01.571Z,15.09
2023-01-01T04:24:02.770Z,15.11
2023-01-01T04:25:02.426Z,15.13
2023-01-01T04:26:04.412Z,15.15
2023-01-01T04:27:02.763Z,15.17
2023-01-01T04:28:01.371Z,15.19
2023-01-01T04:29:05.968Z,15.19
2023-01-01T04:30:01.450Z,15.21
2023-01-01T04:31:52.024Z,15.21
2023-01-01T04:32:51.847Z,15.19
2023-01-01T04:33:52.717Z,15.20
2023-01-01T04:35:11.577Z,15.21
2023-01-01T04:35:50.728Z,15.19
2023-01-01T04:36:50.586Z,15.15
2023-01-01T04:37:50.946Z,15.11
2023-01-01T04:38:50.386Z,15.09
2023-01-01T04:39:51.314Z,15.08
2023-01-01T04:40:51.456Z,15.08
2023-01-01T04:41:51.532Z,15.08
2023-01-01T04:42:50.012Z,15.05
2023-01-01T04:43:51.358Z,15.03
2023-01-01T04:44:51.680Z,15.03
2023-01-01T04:45:50.582Z,15.03
2023-01-01T04:46:54.193Z,15.03
2023-01-01T04:47:51.894Z,15.08
2023-01-01T04:48:50.806Z,15.11
2023-01-01T04:49:50.340Z,15.19
2023-01-01T04:50:52.802Z,15.23
2023-01-01T04:51:50.262Z,15.23
2023-01-01T04:52:50.396Z,15.23
2023-01-01T04:53:49.953Z,15.20
2023-01-01T04:54:49.780Z,15.24
2023-01-01T04:55:49.796Z,15.26
2023-01-01T04:56:50.362Z,15.26
2023-01-01T04:57:50.272Z,15.27
2023-01-01T04:58:50.060Z,15.26
2023-01-01T04:59:50.048Z,15.24
2023-01-01T05:00:50.753Z,15.24
2023-01-01T05:01:50.257Z,15.23
2023-01-01T05:02:49.611Z,15.20
2023-01-01T05:03:49.687Z,15.21
2023-01-01T05:04:51.584Z,15.21
2023-01-01T05:05:51.511Z,15.23
2023-01-01T05:06:50.421Z,15.23
2023-01-01T05:07:51.462Z,15.21
2023-01-01T05:08:50.004Z,15.19
2023-01-01T05:09:50.782Z,15.17
2023-01-01T05:10:50.873Z,15.13
2023-01-01T05:11:49.637Z,15.15
2023-01-01T05:12:51.164Z,15.13
2023-01-01T05:13:50.401Z,15.12
2023-01-01T05:14:51.626Z,15.09
2023-01-01T05:15:49.776Z,15.08
2023-01-01T05:16:49.753Z,15.11
2023-01-01T05:17:49.900Z,15.08
2023-01-01T05:18:49.788Z,15.08
2023-01-01T05:19:50.340Z,15.09
2023-01-01T05:20:50.587Z,15.15
2023-01-01T05:21:50.084Z,15.21
2023-01-01T05:22:50.103Z,15.24
2023-01-01T05:23:51.069Z,15.27
2023-01-01T05:24:50.001Z,15.28
2023-01-01T05:25:53.681Z,15.30
2023-01-01T05:26:52.169Z,15.27
2023-01-01T05:27:51.027Z,15.28
2023-01-01T05:28:51.416Z,15.28
2023-01-01T05:29:51.811Z,15.33
2023-01-01T05:30:49.916Z,15.38
2023-01-01T05:31:51.252Z,15.43
2023-01-01T05:32:51.454Z,15.45
2023-01-01T05:33:55.089Z,15.43
2023-01-01T05:34:50.550Z,15.42
2023-01-01T05:35:49.841Z,15.39
2023-01-01T05:36:50.440Z,15.49
2023-01-01T05:37:50.472Z,15.52
2023-01-01T05:38:50.451Z,15.54
2023-01-01T05:39:50.990Z,15.54
2023-01-01T05:40:50.399Z,15.54
2023-01-01T05:41:51.705Z,15.52
2023-01-01T05:42:49.666Z,15.51
2023-01-01T05:43:49.826Z,15.48
2023-01-01T05:44:49.157Z,15.45
2023-01-01T05:45:49.405Z,15.43
2023-01-01T05:46:51.362Z,15.45
2023-01-01T05:47:49.592Z,15.49
2023-01-01T05:48:50.277Z,15.51
2023-01-01T05:50:46.517Z,15.57
2023-01-01T05:52:21.616Z,15.60
2023-01-01T05:53:20.068Z,15.59
2023-01-01T05:56:21.480Z,15.59
2023-01-01T05:57:12.253Z,15.57
2023-01-01T05:58:15.065Z,15.59
2023-01-01T05:59:15.539Z,15.54
2023-01-01T06:00:11.616Z,15.52
2023-01-01T06:01:12.962Z,15.49
2023-01-01T06:02:12.055Z,15.48
2023-01-01T06:03:14.720Z,15.51
2023-01-01T06:04:13.382Z,15.54
2023-01-01T06:05:12.413Z,15.59
2023-01-01T06:06:13.367Z,15.61
2023-01-01T06:07:15.287Z,15.60
2023-01-01T06:08:12.611Z,15.57
2023-01-01T06:09:14.723Z,15.52
2023-01-01T06:10:11.018Z,15.51
2023-01-01T06:11:11.111Z,15.51
2023-01-01T06:12:11.057Z,15.49
2023-01-01T06:13:13.527Z,15.45
2023-01-01T06:14:14.634Z,15.41
2023-01-01T06:15:13.812Z,15.42
2023-01-01T06:16:12.880Z,15.45
2023-01-01T06:17:14.577Z,15.46
2023-01-01T06:18:11.808Z,15.46
2023-01-01T06:19:13.506Z,15.45
2023-01-01T06:20:12.401Z,15.42
2023-01-01T06:21:12.306Z,15.45
2023-01-01T06:22:13.564Z,15.42
2023-01-01T06:23:12.605Z,15.39
2023-01-01T06:24:11.834Z,15.41
2023-01-01T06:25:13.480Z,15.38
2023-01-01T06:26:11.821Z,15.31
2023-01-01T06:27:11.717Z,15.30
2023-01-01T06:28:13.628Z,15.30
2023-01-01T06:29:12.368Z,15.36
2023-01-01T06:30:11.992Z,15.39
2023-01-01T06:31:12.111Z,15.41
2023-01-01T06:32:11.207Z,15.45
2023-01-01T06:33:13.699Z,15.43
2023-01-01T06:34:14.511Z,15.45
2023-01-01T06:35:13.337Z,15.43
2023-01-01T06:36:11.136Z,15.46
2023-01-01T06:37:15.036Z,15.45
2023-01-01T06:38:15.388Z,15.45
2023-01-01T06:39:12.791Z,15.43
2023-01-01T06:40:14.622Z,15.45
2023-01-01T06:41:11.724Z,15.45
2023-01-01T06:42:17.393Z,15.45
2023-01-01T06:43:14.566Z,15.42
2023-01-01T06:44:12.167Z,15.45
2023-01-01T06:45:16.522Z,15.48
2023-01-01T06:46:12.544Z,15.48
2023-01-01T06:47:13.697Z,15.46
2023-01-01T06:48:22.262Z,15.42
2023-01-01T06:49:12.924Z,15.39
2023-01-01T06:50:12.292Z,15.36
2023-01-01T06:51:12.792Z,15.36
2023-01-01T06:52:12.459Z,15.36
2023-01-01T06:53:11.453Z,15.36
2023-01-01T06:54:11.775Z,15.35
2023-01-01T06:55:32.352Z,15.31
2023-01-01T06:56:11.266Z,15.28
2023-01-01T06:57:15.828Z,15.28
2023-01-01T06:58:18.585Z,15.30
2023-01-01T06:59:13.610Z,15.30
2023-01-01T07:00:16.808Z,15.30
2023-01-01T07:01:13.733Z,15.31
2023-01-01T07:02:12.106Z,15.28
2023-01-01T07:03:12.562Z,15.30
2023-01-01T07:04:16.673Z,15.28
2023-01-01T07:05:18.082Z,15.31
2023-01-01T07:09:43.035Z,15.38
2023-01-01T07:10:41.630Z,15.41
2023-01-01T07:11:42.654Z,15.39
2023-01-01T07:12:41.274Z,15.38
2023-01-01T07:13:41.088Z,15.36
2023-01-01T07:14:41.205Z,15.33
2023-01-01T07:15:41.145Z,15.27
2023-01-01T07:16:41.096Z,15.27
2023-01-01T07:17:41.012Z,15.27
2023-01-01T07:18:41.030Z,15.26
2023-01-01T07:19:41.167Z,15.24
2023-01-01T07:20:41.211Z,15.20
2023-01-01T07:21:41.015Z,15.20
2023-01-01T07:22:41.026Z,15.19
2023-01-01T07:23:41.025Z,15.20
2023-01-01T07:24:41.038Z,15.20
2023-01-01T07:25:42.362Z,15.17
2023-01-01T07:26:41.980Z,15.17
2023-01-01T07:27:43.576Z,15.15
2023-01-01T07:28:42.080Z,15.11
2023-01-01T07:29:42.407Z,15.11
2023-01-01T07:30:41.736Z,15.11
2023-01-01T07:31:41.741Z,15.09
2023-01-01T07:32:43.218Z,15.09
2023-01-01T07:33:41.778Z,15.05
2023-01-01T07:34:48.877Z,15.02
2023-01-01T07:35:50.623Z,15.05
2023-01-01T07:36:42.488Z,15.06
2023-01-01T07:37:42.563Z,15.08
2023-01-01T07:38:40.974Z,15.06
2023-01-01T07:39:43.342Z,15.05
2023-01-01T07:40:41.583Z,15.06
2023-01-01T07:41:43.925Z,15.06
2023-01-01T07:42:43.381Z,15.03
2023-01-01T07:43:47.041Z,15.01
2023-01-01T07:44:47.758Z,14.95
2023-01-01T07:45:51.341Z,14.94
2023-01-01T07:46:42.991Z,14.94
2023-01-01T07:47:50.480Z,14.91
2023-01-01T07:48:44.265Z,14.88
2023-01-01T07:49:42.342Z,14.90
2023-01-01T07:50:43.397Z,14.88
2023-01-01T07:51:42.571Z,14.90
2023-01-01T07:52:45.510Z,14.93
2023-01-01T07:53:43.140Z,14.94
2023-01-01T07:54:41.665Z,14.98
2023-01-01T07:55:41.400Z,14.99
2023-01-01T07:57:22.308Z,14.98
2023-01-01T07:57:42.677Z,14.99
2023-01-01T07:58:43.412Z,14.98
2023-01-01T07:59:43.210Z,14.93
2023-01-01T08:00:42.610Z,14.91
2023-01-01T08:01:43.151Z,14.93
2023-01-01T08:02:41.981Z,14.93
2023-01-01T08:03:45.176Z,14.95
2023-01-01T08:05:11.146Z,14.94
2023-01-01T08:05:41.979Z,14.91
2023-01-01T08:06:44.951Z,14.91
2023-01-01T08:07:43.861Z,14.90
2023-01-01T08:08:40.692Z,14.91
2023-01-01T08:09:40.219Z,14.88
2023-01-01T08:10:40.164Z,14.91
2023-01-01T08:11:40.243Z,14.93
2023-01-01T08:12:40.489Z,14.93
2023-01-01T08:13:40.191Z,14.91
2023-01-01T08:14:40.233Z,14.91
2023-01-01T08:15:40.248Z,14.91
2023-01-01T08:16:40.323Z,14.94
2023-01-01T08:17:46.483Z,14.91
2023-01-01T08:18:42.625Z,14.88
2023-01-01T08:19:40.046Z,14.84
2023-01-01T08:20:40.175Z,14.84
2023-01-01T08:21:41.502Z,14.84
2023-01-01T08:22:41.259Z,14.83
2023-01-01T08:23:41.365Z,14.86
2023-01-01T08:24:44.386Z,14.88
2023-01-01T08:25:40.331Z,14.90
2023-01-01T08:26:40.993Z,14.90
2023-01-01T08:27:40.079Z,14.90
2023-01-01T08:28:41.648Z,14.88
2023-01-01T08:29:41.012Z,14.90
2023-01-01T08:30:40.422Z,14.91
2023-01-01T08:31:40.284Z,14.91
2023-01-01T08:32:40.211Z,14.90
2023-01-01T08:33:40.151Z,14.91
2023-01-01T08:34:40.097Z,14.93
2023-01-01T08:35:40.137Z,14.93
2023-01-01T08:36:40.146Z,14.93
2023-01-01T08:37:40.121Z,14.91
2023-01-01T08:38:40.052Z,14.90
2023-01-01T08:39:40.971Z,14.91
2023-01-01T08:40:40.574Z,14.93
2023-01-01T08:41:40.204Z,14.93
2023-01-01T08:42:41.349Z,14.93
2023-01-01T08:43:41.129Z,14.95
2023-01-01T08:44:39.866Z,14.95
2023-01-01T08:45:39.749Z,14.98
2023-01-01T08:46:41.806Z,14.98
2023-01-01T08:47:40.520Z,14.99
2023-01-01T08:48:40.319Z,15.01
2023-01-01T08:49:40.515Z,15.01
2023-01-01T08:50:39.963Z,14.98
2023-01-01T08:51:40.636Z,14.99
2023-01-01T08:52:39.992Z,14.98
2023-01-01T08:53:44.179Z,14.95
2023-01-01T08:54:41.321Z,14.94
2023-01-01T08:55:39.843Z,14.93
2023-01-01T08:56:40.299Z,14.88
2023-01-01T08:57:42.421Z,14.91
2023-01-01T08:58:40.440Z,14.93
2023-01-01T08:59:40.957Z,14.95
2023-01-01T09:00:39.595Z,14.99
2023-01-01T09:01:39.988Z,15.01
2023-01-01T09:02:41.430Z,15.05
2023-01-01T09:03:41.721Z,15.08
2023-01-01T09:04:40.007Z,15.08
2023-01-01T09:05:44.323Z,15.09
2023-01-01T09:06:41.652Z,15.06
2023-01-01T09:07:40.553Z,15.08
2023-01-01T09:08:39.771Z,15.08
2023-01-01T09:09:41.513Z,15.05
2023-01-01T09:10:41.867Z,15.09
2023-01-01T09:11:39.635Z,15.11
2023-01-01T09:12:39.573Z,15.13
2023-01-01T09:13:39.474Z,15.11
2023-01-01T09:14:40.469Z,15.12
2023-01-01T09:15:40.147Z,15.08
2023-01-01T09:16:44.456Z,15.06
2023-01-01T09:17:39.397Z,15.02
2023-01-01T09:18:40.627Z,14.98
2023-01-01T09:19:39.966Z,14.99
2023-01-01T09:20:40.825Z,14.98
2023-01-01T09:21:40.319Z,14.98
2023-01-01T09:22:39.314Z,14.95
2023-01-01T09:23:40.339Z,14.95
2023-01-01T09:24:40.221Z,14.93
2023-01-01T09:25:40.252Z,14.94
2023-01-01T09:26:43.233Z,14.94
2023-01-01T09:27:41.434Z,14.99
2023-01-01T09:28:40.329Z,14.99
2023-01-01T09:29:42.620Z,14.98
2023-01-01T09:30:39.229Z,14.98
2023-01-01T09:31:39.553Z,14.98
2023-01-01T09:32:39.020Z,14.94
2023-01-01T09:33:38.919Z,14.98
2023-01-01T09:34:38.917Z,14.95
2023-01-01T09:35:38.999Z,15.01
2023-01-01T09:36:38.949Z,14.99
2023-01-01T09:37:38.953Z,14.98
2023-01-01T09:38:38.974Z,14.94
2023-01-01T09:39:38.895Z,14.93
2023-01-01T09:40:38.840Z,14.90
2023-01-01T09:41:38.878Z,14.86
2023-01-01T09:42:38.795Z,14.84
2023-01-01T09:43:39.795Z,14.80
2023-01-01T09:44:39.984Z,14.84
2023-01-01T09:45:39.374Z,14.86
2023-01-01T09:46:39.374Z,14.88
2023-01-01T09:47:40.112Z,14.88
2023-01-01T09:48:40.412Z,14.93
2023-01-01T09:49:39.020Z,14.95
2023-01-01T09:50:41.536Z,15.01
2023-01-01T09:51:47.588Z,14.99
2023-01-01T09:52:40.830Z,14.95
2023-01-01T09:53:39.653Z,14.93
2023-01-01T09:54:39.485Z,14.91
2023-01-01T09:55:40.375Z,14.90
2023-01-01T09:56:41.793Z,14.88
2023-01-01T09:57:41.323Z,14.88
2023-01-01T09:58:42.035Z,14.86
2023-01-01T09:59:38.868Z,14.84
2023-01-01T10:00:38.816Z,14.84
2023-01-01T10:01:39.763Z,14.83
2023-01-01T10:02:39.133Z,14.86
2023-01-01T10:03:39.270Z,14.84
2023-01-01T10:04:39.181Z,14.87
2023-01-01T10:05:38.911Z,14.91
2023-01-01T10:06:39.122Z,14.90
2023-01-01T10:07:39.104Z,14.90
2023-01-01T10:08:40.349Z,14.86
2023-01-01T10:09:41.824Z,14.87
2023-01-01T10:10:40.483Z,14.86
2023-01-01T10:11:39.022Z,14.86
2023-01-01T10:12:39.135Z,14.86
2023-01-01T10:13:39.611Z,14.83
2023-01-01T10:14:38.582Z,14.86
2023-01-01T10:15:39.602Z,14.88
2023-01-01T10:16:39.122Z,14.88
2023-01-01T10:17:38.831Z,14.90
2023-01-01T10:18:40.453Z,14.93
2023-01-01T10:19:40.459Z,14.94
2023-01-01T10:20:40.755Z,14.94
2023-01-01T10:21:45.116Z,14.98
2023-01-01T10:22:39.478Z,14.95
2023-01-01T10:23:39.313Z,14.98
2023-01-01T10:24:39.040Z,14.98
2023-01-01T10:25:40.322Z,14.99
2023-01-01T10:26:40.568Z,14.99
2023-01-01T10:27:39.461Z,14.99
2023-01-01T10:28:39.641Z,14.99
2023-01-01T10:29:39.521Z,14.98
2023-01-01T10:30:38.888Z,14.98
2023-01-01T10:31:40.769Z,14.98
2023-01-01T10:33:00.796Z,14.98
2023-01-01T10:33:41.238Z,14.98
2023-01-01T10:34:38.373Z,14.99
2023-01-01T10:35:38.767Z,15.02
2023-01-01T10:36:38.840Z,15.03
2023-01-01T10:37:40.707Z,15.08
2023-01-01T10:38:39.480Z,15.08
2023-01-01T10:39:38.587Z,15.09
2023-01-01T10:40:38.287Z,15.08
2023-01-01T10:41:38.782Z,15.11
2023-01-01T10:42:40.403Z,15.11
2023-01-01T10:43:39.388Z,15.11
2023-01-01T10:44:38.241Z,15.11
2023-01-01T10:45:42.129Z,15.11
2023-01-01T10:46:38.201Z,15.09
2023-01-01T10:47:38.530Z,15.06
2023-01-01T10:48:39.054Z,15.05
2023-01-01T10:49:39.526Z,15.02
2023-01-01T10:50:39.968Z,14.95
2023-01-01T10:51:38.697Z,14.91
2023-01-01T10:52:40.960Z,14.87
2023-01-01T10:53:40.378Z,14.83
2023-01-01T10:54:38.170Z,14.80
2023-01-01T10:55:37.860Z,14.72
2023-01-01T10:56:38.076Z,14.71
2023-01-01T10:57:37.817Z,14.68
2023-01-01T10:58:39.126Z,14.68
2023-01-01T10:59:38.073Z,14.72
2023-01-01T11:00:38.952Z,14.72
2023-01-01T11:01:37.857Z,14.72
2023-01-01T11:02:37.870Z,14.69
2023-01-01T11:03:37.719Z,14.67
2023-01-01T11:04:37.673Z,14.65
2023-01-01T11:05:37.684Z,14.65
2023-01-01T11:06:37.728Z,14.61
2023-01-01T11:07:37.701Z,14.56
2023-01-01T11:08:37.603Z,14.54
2023-01-01T11:09:37.573Z,14.53
2023-01-01T11:10:37.640Z,14.56
2023-01-01T11:11:37.602Z,14.56
2023-01-01T11:13:38.577Z,14.54
2023-01-01T11:14:37.528Z,14.52
2023-01-01T11:15:37.733Z,14.47
2023-01-01T11:16:37.613Z,14.44
2023-01-01T11:17:37.540Z,14.42
2023-01-01T11:18:37.473Z,14.37
2023-01-01T11:19:37.459Z,14.34
2023-01-01T11:20:37.659Z,14.29
2023-01-01T11:21:37.458Z,14.25
2023-01-01T11:22:37.789Z,14.24
2023-01-01T11:23:37.487Z,14.19
2023-01-01T11:24:37.371Z,14.19
2023-01-01T11:25:37.469Z,14.20
2023-01-01T11:26:37.385Z,14.25
2023-01-01T11:27:37.312Z,14.27
2023-01-01T11:28:37.547Z,14.28
2023-01-01T11:29:37.354Z,14.27
2023-01-01T11:30:37.443Z,14.24
2023-01-01T11:31:37.311Z,14.24
2023-01-01T11:32:37.329Z,14.25
2023-01-01T11:33:37.277Z,14.27
2023-01-01T11:34:37.326Z,14.25
2023-01-01T11:35:37.284Z,14.25
2023-01-01T11:36:37.192Z,14.27
2023-01-01T11:37:37.310Z,14.28
2023-01-01T11:38:37.219Z,14.29
2023-01-01T11:39:37.161Z,14.28
2023-01-01T11:40:37.158Z,14.28
2023-01-01T11:41:37.168Z,14.29
2023-01-01T11:42:37.220Z,14.29
2023-01-01T11:43:37.167Z,14.29
2023-01-01T11:44:37.079Z,14.28
2023-01-01T11:45:38.062Z,14.32
2023-01-01T11:46:37.115Z,14.32
2023-01-01T11:47:37.074Z,14.29
2023-01-01T11:48:37.117Z,14.27
2023-01-01T11:49:37.041Z,14.21
2023-01-01T11:50:37.079Z,14.19
2023-01-01T11:51:37.031Z,14.17
2023-01-01T11:52:36.993Z,14.14
2023-01-01T11:53:36.949Z,14.17
2023-01-01T11:54:37.821Z,14.16
2023-01-01T11:55:36.973Z,14.13
2023-01-01T11:56:37.032Z,14.13
2023-01-01T11:57:36.969Z,14.13
2023-01-01T11:58:36.872Z,14.12
2023-01-01T11:59:36.881Z,14.10
2023-01-01T12:00:36.995Z,14.12
2023-01-01T12:01:36.985Z,14.13
2023-01-01T12:02:36.928Z,14.12
2023-01-01T12:03:36.906Z,14.09
2023-01-01T12:04:36.840Z,14.10
2023-01-01T12:05:36.772Z,14.09
2023-01-01T12:06:36.877Z,14.07
2023-01-01T12:07:36.789Z,14.04
2023-01-01T12:08:36.747Z,13.96
2023-01-01T12:09:36.736Z,13.98
2023-01-01T12:10:36.731Z,13.95
2023-01-01T12:11:36.672Z,13.94
2023-01-01T12:12:36.679Z,13.94
2023-01-01T12:13:36.736Z,13.95
2023-01-01T12:14:36.923Z,13.94
2023-01-01T12:15:36.688Z,13.89
2023-01-01T12:16:36.634Z,13.89
2023-01-01T12:17:36.668Z,13.87
2023-01-01T12:18:36.673Z,13.84
2023-01-01T12:19:36.651Z,13.83
2023-01-01T12:20:36.591Z,13.83
2023-01-01T12:21:36.535Z,13.84
2023-01-01T12:22:36.708Z,13.87
2023-01-01T12:23:36.549Z,13.89
2023-01-01T12:24:36.629Z,13.92
2023-01-01T12:25:36.640Z,13.94
2023-01-01T12:26:36.727Z,13.94
2023-01-01T12:27:36.567Z,13.96
2023-01-01T12:28:36.465Z,13.98
2023-01-01T12:29:36.669Z,13.96
2023-01-01T12:30:36.598Z,13.96
2023-01-01T12:31:36.599Z,13.96
2023-01-01T12:32:36.438Z,13.95
2023-01-01T12:33:36.379Z,13.94
2023-01-01T12:34:39.662Z,13.95
2023-01-01T12:35:36.409Z,13.96
2023-01-01T12:36:36.392Z,13.96
2023-01-01T12:37:36.340Z,13.98
2023-01-01T12:38:36.438Z,13.98
2023-01-01T12:39:36.424Z,14.01
2023-01-01T12:40:36.382Z,14.04
2023-01-01T12:41:36.845Z,14.01
2023-01-01T12:42:36.322Z,14.02
2023-01-01T12:43:36.365Z,14.02
2023-01-01T12:44:36.379Z,14.01
2023-01-01T12:45:36.486Z,14.01
2023-01-01T12:46:36.506Z,14.02
2023-01-01T12:47:36.188Z,14.02
2023-01-01T12:48:36.489Z,14.01
2023-01-01T12:49:36.290Z,14.06
2023-01-01T12:50:36.221Z,14.09
2023-01-01T12:51:36.229Z,14.06
2023-01-01T12:52:39.203Z,14.07
2023-01-01T12:53:36.152Z,14.09
2023-01-01T12:54:36.245Z,14.10
2023-01-01T12:55:36.144Z,14.14
2023-01-01T12:56:36.148Z,14.19
2023-01-01T12:57:36.140Z,14.17
2023-01-01T12:58:36.157Z,14.21
2023-01-01T12:59:36.068Z,14.21
2023-01-01T13:00:36.044Z,14.16
2023-01-01T13:01:36.163Z,14.13
2023-01-01T13:02:38.624Z,14.13
2023-01-01T13:03:36.014Z,14.04
2023-01-01T13:04:35.991Z,14.02
2023-01-01T13:05:36.188Z,14.01
2023-01-01T13:06:36.027Z,14.04
2023-01-01T13:07:38.414Z,14.09
2023-01-01T13:08:36.502Z,13.98